sensor_id;sensor_type;location;lat;lon;timestamp;P1;durP1;ratioP1;P2;durP2;ratioP2
35602;SDS011;21725;50.836;4.368;2022-11-20T00:01:48;46.80;;;27.10;;
35602;SDS011;21725;50.836;4.368;2022-11-20T00:04:14;38.72;;;26.27;;
35602;SDS011;21725;50.836;4.368;2022-11-20T00:06:40;45.03;;;26.75;;
35602;SDS011;21725;50.836;4.368;2022-11-20T00:09:06;41.30;;;25.70;;
35602;SDS011;21725;50.836;4.368;2022-11-20T00:11:31;43.30;;;26.85;;
35602;SDS011;21725;50.836;4.368;2022-11-20T00:13:59;43.17;;;26.42;;
35602;SDS011;21725;50.836;4.368;2022-11-20T00:16:27;40.85;;;26.20;;
35602;SDS011;21725;50.836;4.368;2022-11-20T00:18:54;45.17;;;29.10;;
35602;SDS011;21725;50.836;4.368;2022-11-20T00:21:21;44.50;;;27.77;;
35602;SDS011;21725;50.836;4.368;2022-11-20T00:23:48;41.00;;;27.52;;
35602;SDS011;21725;50.836;4.368;2022-11-20T00:26:16;44.20;;;27.92;;
35602;SDS011;21725;50.836;4.368;2022-11-20T00:28:49;41.00;;;27.15;;
35602;SDS011;21725;50.836;4.368;2022-11-20T00:31:19;40.40;;;26.15;;
35602;SDS011;21725;50.836;4.368;2022-11-20T00:33:45;41.17;;;27.05;;
35602;SDS011;21725;50.836;4.368;2022-11-20T00:36:13;43.08;;;26.98;;
35602;SDS011;21725;50.836;4.368;2022-11-20T00:38:40;44.63;;;26.50;;
35602;SDS011;21725;50.836;4.368;2022-11-20T00:41:08;40.92;;;25.83;;
35602;SDS011;21725;50.836;4.368;2022-11-20T00:43:34;39.70;;;27.15;;
35602;SDS011;21725;50.836;4.368;2022-11-20T00:46:02;45.75;;;26.77;;
35602;SDS011;21725;50.836;4.368;2022-11-20T00:48:30;31.65;;;20.17;;
35602;SDS011;21725;50.836;4.368;2022-11-20T00:50:56;41.28;;;27.65;;
35602;SDS011;21725;50.836;4.368;2022-11-20T00:53:22;51.03;;;27.75;;
35602;SDS011;21725;50.836;4.368;2022-11-20T00:56:01;40.97;;;27.30;;
35602;SDS011;21725;50.836;4.368;2022-11-20T00:58:30;43.63;;;27.25;;
35602;SDS011;21725;50.836;4.368;2022-11-20T01:03:37;31.58;;;20.45;;
35602;SDS011;21725;50.836;4.368;2022-11-20T01:06:27;36.50;;;24.52;;
35602;SDS011;21725;50.836;4.368;2022-11-20T01:08:57;42.85;;;26.52;;
35602;SDS011;21725;50.836;4.368;2022-11-20T01:11:26;41.05;;;27.00;;
35602;SDS011;21725;50.836;4.368;2022-11-20T01:13:53;40.80;;;25.50;;
35602;SDS011;21725;50.836;4.368;2022-11-20T01:16:24;40.05;;;26.90;;
35602;SDS011;21725;50.836;4.368;2022-11-20T01:18:56;37.80;;;25.70;;
35602;SDS011;21725;50.836;4.368;2022-11-20T01:21:23;42.72;;;26.25;;
35602;SDS011;21725;50.836;4.368;2022-11-20T01:23:51;39.50;;;27.87;;
35602;SDS011;21725;50.836;4.368;2022-11-20T01:26:22;38.22;;;25.73;;
35602;SDS011;21725;50.836;4.368;2022-11-20T01:28:50;38.40;;;25.80;;
35602;SDS011;21725;50.836;4.368;2022-11-20T01:33:48;43.53;;;26.45;;
35602;SDS011;21725;50.836;4.368;2022-11-20T01:36:16;37.13;;;25.17;;
35602;SDS011;21725;50.836;4.368;2022-11-20T01:38:43;38.80;;;25.90;;
35602;SDS011;21725;50.836;4.368;2022-11-20T01:41:10;40.08;;;26.40;;
35602;SDS011;21725;50.836;4.368;2022-11-20T01:43:57;37.53;;;24.83;;
35602;SDS011;21725;50.836;4.368;2022-11-20T01:46:24;41.65;;;27.48;;
35602;SDS011;21725;50.836;4.368;2022-11-20T01:51:28;42.20;;;26.30;;
35602;SDS011;21725;50.836;4.368;2022-11-20T01:54:19;39.22;;;25.95;;
35602;SDS011;21725;50.836;4.368;2022-11-20T01:56:54;41.72;;;26.98;;
35602;SDS011;21725;50.836;4.368;2022-11-20T01:59:21;43.17;;;30.45;;
35602;SDS011;21725;50.836;4.368;2022-11-20T02:01:50;44.55;;;29.83;;
35602;SDS011;21725;50.836;4.368;2022-11-20T02:04:17;46.50;;;29.35;;
35602;SDS011;21725;50.836;4.368;2022-11-20T02:06:44;46.63;;;28.45;;
35602;SDS011;21725;50.836;4.368;2022-11-20T02:09:14;43.20;;;29.55;;
35602;SDS011;21725;50.836;4.368;2022-11-20T02:11:42;37.40;;;22.70;;
35602;SDS011;21725;50.836;4.368;2022-11-20T02:14:08;47.85;;;29.88;;
35602;SDS011;21725;50.836;4.368;2022-11-20T02:16:36;49.83;;;27.45;;
35602;SDS011;21725;50.836;4.368;2022-11-20T02:19:05;36.53;;;22.95;;
35602;SDS011;21725;50.836;4.368;2022-11-20T02:21:47;41.70;;;27.27;;
35602;SDS011;21725;50.836;4.368;2022-11-20T02:24:21;47.03;;;27.83;;
35602;SDS011;21725;50.836;4.368;2022-11-20T02:29:26;43.92;;;26.65;;
35602;SDS011;21725;50.836;4.368;2022-11-20T02:31:55;41.67;;;26.80;;
35602;SDS011;21725;50.836;4.368;2022-11-20T02:34:23;43.92;;;26.77;;
35602;SDS011;21725;50.836;4.368;2022-11-20T02:36:49;41.90;;;26.55;;
35602;SDS011;21725;50.836;4.368;2022-11-20T02:39:17;46.40;;;26.88;;
35602;SDS011;21725;50.836;4.368;2022-11-20T02:41:45;44.60;;;25.40;;
35602;SDS011;21725;50.836;4.368;2022-11-20T02:44:11;44.75;;;27.60;;
35602;SDS011;21725;50.836;4.368;2022-11-20T02:46:37;41.33;;;25.90;;
35602;SDS011;21725;50.836;4.368;2022-11-20T02:49:03;45.22;;;27.23;;
35602;SDS011;21725;50.836;4.368;2022-11-20T02:51:29;45.53;;;27.15;;
35602;SDS011;21725;50.836;4.368;2022-11-20T02:53:56;49.08;;;28.27;;
35602;SDS011;21725;50.836;4.368;2022-11-20T02:56:22;47.00;;;24.88;;
35602;SDS011;21725;50.836;4.368;2022-11-20T02:58:48;48.90;;;28.00;;
35602;SDS011;21725;50.836;4.368;2022-11-20T03:01:13;45.38;;;26.17;;
35602;SDS011;21725;50.836;4.368;2022-11-20T03:03:39;44.20;;;24.75;;
35602;SDS011;21725;50.836;4.368;2022-11-20T03:06:05;39.45;;;24.20;;
35602;SDS011;21725;50.836;4.368;2022-11-20T03:08:31;38.70;;;23.75;;
35602;SDS011;21725;50.836;4.368;2022-11-20T03:11:01;40.80;;;23.65;;
35602;SDS011;21725;50.836;4.368;2022-11-20T03:13:31;42.00;;;24.52;;
35602;SDS011;21725;50.836;4.368;2022-11-20T03:15:56;36.35;;;22.08;;
35602;SDS011;21725;50.836;4.368;2022-11-20T03:18:22;38.38;;;23.25;;
35602;SDS011;21725;50.836;4.368;2022-11-20T03:20:48;43.65;;;22.35;;
35602;SDS011;21725;50.836;4.368;2022-11-20T03:23:13;36.85;;;21.70;;
35602;SDS011;21725;50.836;4.368;2022-11-20T03:25:39;39.67;;;22.95;;
35602;SDS011;21725;50.836;4.368;2022-11-20T03:28:05;38.03;;;23.05;;
35602;SDS011;21725;50.836;4.368;2022-11-20T03:30:30;39.65;;;24.40;;
35602;SDS011;21725;50.836;4.368;2022-11-20T03:32:56;43.78;;;24.95;;
35602;SDS011;21725;50.836;4.368;2022-11-20T03:35:22;44.92;;;26.13;;
35602;SDS011;21725;50.836;4.368;2022-11-20T03:37:47;42.45;;;24.52;;
35602;SDS011;21725;50.836;4.368;2022-11-20T03:40:13;45.67;;;25.15;;
35602;SDS011;21725;50.836;4.368;2022-11-20T03:42:39;39.60;;;23.75;;
35602;SDS011;21725;50.836;4.368;2022-11-20T03:45:11;44.05;;;24.00;;
35602;SDS011;21725;50.836;4.368;2022-11-20T03:47:40;40.50;;;22.70;;
35602;SDS011;21725;50.836;4.368;2022-11-20T03:50:07;44.97;;;27.08;;
35602;SDS011;21725;50.836;4.368;2022-11-20T03:52:34;49.85;;;28.48;;
35602;SDS011;21725;50.836;4.368;2022-11-20T03:54:59;39.97;;;23.25;;
35602;SDS011;21725;50.836;4.368;2022-11-20T03:57:25;39.30;;;22.85;;
35602;SDS011;21725;50.836;4.368;2022-11-20T03:59:51;38.33;;;24.70;;
35602;SDS011;21725;50.836;4.368;2022-11-20T04:02:17;42.33;;;25.25;;
35602;SDS011;21725;50.836;4.368;2022-11-20T04:04:42;47.90;;;24.73;;
35602;SDS011;21725;50.836;4.368;2022-11-20T04:07:08;43.28;;;24.75;;
35602;SDS011;21725;50.836;4.368;2022-11-20T04:09:34;42.92;;;23.85;;
35602;SDS011;21725;50.836;4.368;2022-11-20T04:11:59;50.70;;;26.73;;
35602;SDS011;21725;50.836;4.368;2022-11-20T04:14:25;46.53;;;25.27;;
35602;SDS011;21725;50.836;4.368;2022-11-20T04:16:51;43.85;;;25.23;;
35602;SDS011;21725;50.836;4.368;2022-11-20T04:19:16;46.95;;;25.90;;
35602;SDS011;21725;50.836;4.368;2022-11-20T04:21:42;46.40;;;26.83;;
35602;SDS011;21725;50.836;4.368;2022-11-20T04:24:09;49.13;;;27.17;;
35602;SDS011;21725;50.836;4.368;2022-11-20T04:26:38;44.28;;;24.20;;
35602;SDS011;21725;50.836;4.368;2022-11-20T04:29:04;49.45;;;26.30;;
35602;SDS011;21725;50.836;4.368;2022-11-20T04:31:31;54.72;;;28.13;;
35602;SDS011;21725;50.836;4.368;2022-11-20T04:33:59;51.47;;;25.60;;
35602;SDS011;21725;50.836;4.368;2022-11-20T04:36:29;52.40;;;29.42;;
35602;SDS011;21725;50.836;4.368;2022-11-20T04:38:58;59.58;;;28.92;;
35602;SDS011;21725;50.836;4.368;2022-11-20T04:41:28;47.53;;;26.58;;
35602;SDS011;21725;50.836;4.368;2022-11-20T04:43:56;42.13;;;24.83;;
35602;SDS011;21725;50.836;4.368;2022-11-20T04:46:32;46.60;;;25.95;;
35602;SDS011;21725;50.836;4.368;2022-11-20T04:49:00;47.53;;;25.35;;
35602;SDS011;21725;50.836;4.368;2022-11-20T04:51:26;49.25;;;25.27;;
35602;SDS011;21725;50.836;4.368;2022-11-20T04:53:52;55.42;;;28.02;;
35602;SDS011;21725;50.836;4.368;2022-11-20T04:56:18;58.63;;;27.67;;
35602;SDS011;21725;50.836;4.368;2022-11-20T04:58:44;49.88;;;26.70;;
35602;SDS011;21725;50.836;4.368;2022-11-20T05:01:14;51.03;;;27.58;;
35602;SDS011;21725;50.836;4.368;2022-11-20T05:25:34;54.92;;;27.98;;
35602;SDS011;21725;50.836;4.368;2022-11-20T05:28:00;57.15;;;29.23;;
35602;SDS011;21725;50.836;4.368;2022-11-20T05:30:25;53.83;;;28.63;;
35602;SDS011;21725;50.836;4.368;2022-11-20T05:32:51;53.53;;;29.05;;
35602;SDS011;21725;50.836;4.368;2022-11-20T05:35:17;60.80;;;32.20;;
35602;SDS011;21725;50.836;4.368;2022-11-20T05:37:43;60.28;;;31.90;;
35602;SDS011;21725;50.836;4.368;2022-11-20T05:40:08;56.45;;;29.92;;
35602;SDS011;21725;50.836;4.368;2022-11-20T05:42:35;55.65;;;27.73;;
35602;SDS011;21725;50.836;4.368;2022-11-20T05:45:01;58.20;;;30.38;;
35602;SDS011;21725;50.836;4.368;2022-11-20T05:47:32;58.35;;;31.15;;
35602;SDS011;21725;50.836;4.368;2022-11-20T05:49:59;57.58;;;29.08;;
35602;SDS011;21725;50.836;4.368;2022-11-20T05:52:27;55.08;;;28.63;;
35602;SDS011;21725;50.836;4.368;2022-11-20T05:54:54;58.65;;;31.80;;
35602;SDS011;21725;50.836;4.368;2022-11-20T05:57:19;65.85;;;30.20;;
35602;SDS011;21725;50.836;4.368;2022-11-20T05:59:45;62.58;;;29.85;;
35602;SDS011;21725;50.836;4.368;2022-11-20T06:02:11;62.88;;;30.23;;
35602;SDS011;21725;50.836;4.368;2022-11-20T06:04:36;56.42;;;28.08;;
35602;SDS011;21725;50.836;4.368;2022-11-20T06:07:02;55.55;;;27.60;;
35602;SDS011;21725;50.836;4.368;2022-11-20T06:09:29;57.10;;;28.27;;
35602;SDS011;21725;50.836;4.368;2022-11-20T06:11:55;56.38;;;29.70;;
35602;SDS011;21725;50.836;4.368;2022-11-20T06:14:20;58.13;;;29.10;;
35602;SDS011;21725;50.836;4.368;2022-11-20T06:16:46;60.08;;;30.45;;
35602;SDS011;21725;50.836;4.368;2022-11-20T06:19:12;60.47;;;29.20;;
35602;SDS011;21725;50.836;4.368;2022-11-20T06:21:38;59.95;;;30.35;;
35602;SDS011;21725;50.836;4.368;2022-11-20T06:24:04;54.45;;;29.08;;
35602;SDS011;21725;50.836;4.368;2022-11-20T06:26:30;60.63;;;31.50;;
35602;SDS011;21725;50.836;4.368;2022-11-20T06:28:56;61.88;;;29.88;;
35602;SDS011;21725;50.836;4.368;2022-11-20T06:31:22;61.33;;;28.10;;
35602;SDS011;21725;50.836;4.368;2022-11-20T06:33:50;64.20;;;33.55;;
35602;SDS011;21725;50.836;4.368;2022-11-20T06:36:17;54.08;;;26.45;;
35602;SDS011;21725;50.836;4.368;2022-11-20T06:38:44;55.05;;;28.85;;
35602;SDS011;21725;50.836;4.368;2022-11-20T06:41:11;65.85;;;29.80;;
35602;SDS011;21725;50.836;4.368;2022-11-20T06:43:39;56.83;;;27.80;;
35602;SDS011;21725;50.836;4.368;2022-11-20T06:46:04;58.47;;;27.98;;
35602;SDS011;21725;50.836;4.368;2022-11-20T06:48:30;51.75;;;28.77;;
35602;SDS011;21725;50.836;4.368;2022-11-20T06:50:56;55.55;;;29.70;;
35602;SDS011;21725;50.836;4.368;2022-11-20T06:53:22;52.80;;;28.48;;
35602;SDS011;21725;50.836;4.368;2022-11-20T06:55:49;57.65;;;27.23;;
35602;SDS011;21725;50.836;4.368;2022-11-20T06:58:16;57.67;;;28.73;;
35602;SDS011;21725;50.836;4.368;2022-11-20T07:00:43;52.28;;;27.27;;
35602;SDS011;21725;50.836;4.368;2022-11-20T07:03:10;52.42;;;28.30;;
35602;SDS011;21725;50.836;4.368;2022-11-20T07:05:37;50.22;;;26.50;;
35602;SDS011;21725;50.836;4.368;2022-11-20T07:08:03;52.58;;;28.13;;
35602;SDS011;21725;50.836;4.368;2022-11-20T07:10:30;55.17;;;27.17;;
35602;SDS011;21725;50.836;4.368;2022-11-20T07:12:56;56.85;;;28.23;;
35602;SDS011;21725;50.836;4.368;2022-11-20T07:15:22;61.75;;;27.17;;
35602;SDS011;21725;50.836;4.368;2022-11-20T07:17:49;54.60;;;26.17;;
35602;SDS011;21725;50.836;4.368;2022-11-20T07:20:14;49.65;;;28.10;;
35602;SDS011;21725;50.836;4.368;2022-11-20T07:22:41;55.20;;;28.70;;
35602;SDS011;21725;50.836;4.368;2022-11-20T07:25:07;49.55;;;26.75;;
35602;SDS011;21725;50.836;4.368;2022-11-20T07:27:33;51.17;;;27.30;;
35602;SDS011;21725;50.836;4.368;2022-11-20T07:29:59;49.50;;;27.33;;
35602;SDS011;21725;50.836;4.368;2022-11-20T07:32:25;50.90;;;26.75;;
35602;SDS011;21725;50.836;4.368;2022-11-20T07:34:51;56.08;;;28.88;;
35602;SDS011;21725;50.836;4.368;2022-11-20T07:37:17;49.85;;;26.52;;
35602;SDS011;21725;50.836;4.368;2022-11-20T07:39:43;52.90;;;26.85;;
35602;SDS011;21725;50.836;4.368;2022-11-20T07:42:09;45.55;;;25.05;;
35602;SDS011;21725;50.836;4.368;2022-11-20T07:44:35;49.03;;;26.45;;
35602;SDS011;21725;50.836;4.368;2022-11-20T07:47:01;46.90;;;24.42;;
35602;SDS011;21725;50.836;4.368;2022-11-20T07:49:27;55.95;;;28.10;;
35602;SDS011;21725;50.836;4.368;2022-11-20T07:51:53;50.03;;;25.42;;
35602;SDS011;21725;50.836;4.368;2022-11-20T07:54:22;62.75;;;29.00;;
35602;SDS011;21725;50.836;4.368;2022-11-20T07:56:48;58.55;;;27.35;;
35602;SDS011;21725;50.836;4.368;2022-11-20T07:59:14;60.05;;;27.80;;
35602;SDS011;21725;50.836;4.368;2022-11-20T08:01:41;56.78;;;27.23;;
35602;SDS011;21725;50.836;4.368;2022-11-20T08:04:07;57.58;;;26.67;;
35602;SDS011;21725;50.836;4.368;2022-11-20T08:06:33;62.03;;;27.63;;
35602;SDS011;21725;50.836;4.368;2022-11-20T08:08:59;55.17;;;27.55;;
35602;SDS011;21725;50.836;4.368;2022-11-20T08:11:25;56.65;;;28.55;;
35602;SDS011;21725;50.836;4.368;2022-11-20T08:14:09;52.20;;;24.08;;
35602;SDS011;21725;50.836;4.368;2022-11-20T08:16:41;48.78;;;23.30;;
35602;SDS011;21725;50.836;4.368;2022-11-20T08:19:11;57.63;;;25.70;;
35602;SDS011;21725;50.836;4.368;2022-11-20T08:21:37;57.55;;;26.83;;
35602;SDS011;21725;50.836;4.368;2022-11-20T08:24:03;57.38;;;26.50;;
35602;SDS011;21725;50.836;4.368;2022-11-20T08:26:30;60.08;;;26.77;;
35602;SDS011;21725;50.836;4.368;2022-11-20T08:28:56;54.53;;;25.58;;
35602;SDS011;21725;50.836;4.368;2022-11-20T08:31:28;53.92;;;26.65;;
35602;SDS011;21725;50.836;4.368;2022-11-20T08:33:55;58.40;;;27.13;;
35602;SDS011;21725;50.836;4.368;2022-11-20T08:36:21;61.22;;;29.50;;
35602;SDS011;21725;50.836;4.368;2022-11-20T08:38:48;54.97;;;25.92;;
35602;SDS011;21725;50.836;4.368;2022-11-20T08:41:14;57.17;;;26.00;;
35602;SDS011;21725;50.836;4.368;2022-11-20T08:43:50;51.90;;;23.80;;
35602;SDS011;21725;50.836;4.368;2022-11-20T08:46:24;51.75;;;25.52;;
35602;SDS011;21725;50.836;4.368;2022-11-20T08:48:51;54.88;;;25.65;;
35602;SDS011;21725;50.836;4.368;2022-11-20T08:51:17;51.92;;;25.02;;
35602;SDS011;21725;50.836;4.368;2022-11-20T08:53:44;55.90;;;24.88;;
35602;SDS011;21725;50.836;4.368;2022-11-20T08:56:10;49.05;;;25.05;;
35602;SDS011;21725;50.836;4.368;2022-11-20T08:58:37;45.53;;;24.77;;
35602;SDS011;21725;50.836;4.368;2022-11-20T09:01:03;48.53;;;24.92;;
35602;SDS011;21725;50.836;4.368;2022-11-20T09:03:29;53.65;;;23.52;;
35602;SDS011;21725;50.836;4.368;2022-11-20T09:06:05;47.70;;;23.30;;
35602;SDS011;21725;50.836;4.368;2022-11-20T09:08:32;47.92;;;22.75;;
35602;SDS011;21725;50.836;4.368;2022-11-20T09:10:58;51.28;;;25.02;;
35602;SDS011;21725;50.836;4.368;2022-11-20T09:13:25;49.10;;;24.77;;
35602;SDS011;21725;50.836;4.368;2022-11-20T09:15:59;51.05;;;24.00;;
35602;SDS011;21725;50.836;4.368;2022-11-20T09:18:26;43.35;;;22.27;;
35602;SDS011;21725;50.836;4.368;2022-11-20T09:20:57;42.63;;;22.20;;
35602;SDS011;21725;50.836;4.368;2022-11-20T09:23:23;37.40;;;21.00;;
35602;SDS011;21725;50.836;4.368;2022-11-20T09:25:49;42.28;;;20.80;;
35602;SDS011;21725;50.836;4.368;2022-11-20T09:28:15;40.88;;;21.45;;
35602;SDS011;21725;50.836;4.368;2022-11-20T09:30:43;37.08;;;20.33;;
35602;SDS011;21725;50.836;4.368;2022-11-20T09:33:09;37.85;;;20.00;;
35602;SDS011;21725;50.836;4.368;2022-11-20T09:35:35;35.58;;;19.60;;
35602;SDS011;21725;50.836;4.368;2022-11-20T09:38:04;31.75;;;18.75;;
35602;SDS011;21725;50.836;4.368;2022-11-20T09:40:31;36.35;;;19.33;;
35602;SDS011;21725;50.836;4.368;2022-11-20T09:43:01;31.33;;;17.92;;
35602;SDS011;21725;50.836;4.368;2022-11-20T09:51:32;28.98;;;16.25;;
35602;SDS011;21725;50.836;4.368;2022-11-20T09:56:45;26.27;;;16.02;;
35602;SDS011;21725;50.836;4.368;2022-11-20T09:59:22;27.40;;;15.10;;
35602;SDS011;21725;50.836;4.368;2022-11-20T10:01:54;26.13;;;14.80;;
35602;SDS011;21725;50.836;4.368;2022-11-20T10:04:20;27.42;;;13.25;;
35602;SDS011;21725;50.836;4.368;2022-11-20T10:06:50;20.52;;;11.15;;
35602;SDS011;21725;50.836;4.368;2022-11-20T10:09:37;21.00;;;12.48;;
35602;SDS011;21725;50.836;4.368;2022-11-20T10:12:17;21.20;;;11.85;;
35602;SDS011;21725;50.836;4.368;2022-11-20T10:18:10;19.58;;;11.18;;
35602;SDS011;21725;50.836;4.368;2022-11-20T10:23:46;20.33;;;11.02;;
35602;SDS011;21725;50.836;4.368;2022-11-20T10:29:40;16.73;;;9.15;;
35602;SDS011;21725;50.836;4.368;2022-11-20T10:32:14;17.55;;;9.13;;
35602;SDS011;21725;50.836;4.368;2022-11-20T10:37:26;15.73;;;7.85;;
35602;SDS011;21725;50.836;4.368;2022-11-20T10:39:58;14.50;;;7.60;;
35602;SDS011;21725;50.836;4.368;2022-11-20T10:42:45;16.40;;;9.18;;
35602;SDS011;21725;50.836;4.368;2022-11-20T10:45:31;16.23;;;7.75;;
35602;SDS011;21725;50.836;4.368;2022-11-20T10:53:33;10.30;;;6.43;;
35602;SDS011;21725;50.836;4.368;2022-11-20T10:56:10;12.10;;;6.40;;
35602;SDS011;21725;50.836;4.368;2022-11-20T11:01:26;10.23;;;4.72;;
35602;SDS011;21725;50.836;4.368;2022-11-20T11:24:19;9.65;;;3.83;;
35602;SDS011;21725;50.836;4.368;2022-11-20T11:26:55;13.50;;;4.82;;
35602;SDS011;21725;50.836;4.368;2022-11-20T11:29:29;12.05;;;5.65;;
35602;SDS011;21725;50.836;4.368;2022-11-20T11:32:10;9.75;;;4.25;;
35602;SDS011;21725;50.836;4.368;2022-11-20T11:34:38;9.23;;;4.57;;
35602;SDS011;21725;50.836;4.368;2022-11-20T11:37:03;8.30;;;4.00;;
35602;SDS011;21725;50.836;4.368;2022-11-20T11:39:35;9.70;;;4.13;;
35602;SDS011;21725;50.836;4.368;2022-11-20T11:42:07;8.93;;;3.88;;
35602;SDS011;21725;50.836;4.368;2022-11-20T11:44:44;10.63;;;4.32;;
35602;SDS011;21725;50.836;4.368;2022-11-20T11:47:36;9.00;;;3.67;;
35602;SDS011;21725;50.836;4.368;2022-11-20T11:52:36;9.40;;;4.15;;
35602;SDS011;21725;50.836;4.368;2022-11-20T11:55:09;7.15;;;4.13;;
35602;SDS011;21725;50.836;4.368;2022-11-20T12:00:41;11.65;;;3.83;;
35602;SDS011;21725;50.836;4.368;2022-11-20T12:03:31;9.88;;;4.20;;
35602;SDS011;21725;50.836;4.368;2022-11-20T12:06:03;7.32;;;3.33;;
35602;SDS011;21725;50.836;4.368;2022-11-20T12:08:42;6.18;;;3.40;;
35602;SDS011;21725;50.836;4.368;2022-11-20T12:11:36;8.55;;;3.92;;
35602;SDS011;21725;50.836;4.368;2022-11-20T12:14:21;10.98;;;4.45;;
35602;SDS011;21725;50.836;4.368;2022-11-20T12:16:54;6.82;;;3.30;;
35602;SDS011;21725;50.836;4.368;2022-11-20T12:19:22;10.82;;;4.13;;
35602;SDS011;21725;50.836;4.368;2022-11-20T12:21:52;9.25;;;3.40;;
35602;SDS011;21725;50.836;4.368;2022-11-20T12:24:41;9.35;;;3.92;;
35602;SDS011;21725;50.836;4.368;2022-11-20T12:45:01;11.43;;;3.55;;
35602;SDS011;21725;50.836;4.368;2022-11-20T12:56:48;7.97;;;3.97;;
35602;SDS011;21725;50.836;4.368;2022-11-20T13:05:20;6.82;;;3.22;;
35602;SDS011;21725;50.836;4.368;2022-11-20T13:07:56;15.43;;;4.18;;
35602;SDS011;21725;50.836;4.368;2022-11-20T13:13:47;10.55;;;3.60;;
35602;SDS011;21725;50.836;4.368;2022-11-20T13:19:21;8.07;;;4.35;;
35602;SDS011;21725;50.836;4.368;2022-11-20T13:21:48;7.05;;;3.22;;
35602;SDS011;21725;50.836;4.368;2022-11-20T13:29:40;6.75;;;3.78;;
35602;SDS011;21725;50.836;4.368;2022-11-20T13:32:14;7.18;;;3.55;;
35602;SDS011;21725;50.836;4.368;2022-11-20T13:34:56;11.23;;;3.80;;
35602;SDS011;21725;50.836;4.368;2022-11-20T13:40:12;6.68;;;3.75;;
35602;SDS011;21725;50.836;4.368;2022-11-20T13:42:40;8.85;;;3.47;;
35602;SDS011;21725;50.836;4.368;2022-11-20T13:45:11;10.27;;;4.90;;
35602;SDS011;21725;50.836;4.368;2022-11-20T13:47:49;7.13;;;3.53;;
35602;SDS011;21725;50.836;4.368;2022-11-20T13:50:16;10.18;;;4.00;;
35602;SDS011;21725;50.836;4.368;2022-11-20T13:58:24;5.47;;;2.95;;
35602;SDS011;21725;50.836;4.368;2022-11-20T14:01:19;7.47;;;4.45;;
35602;SDS011;21725;50.836;4.368;2022-11-20T14:03:48;5.22;;;3.33;;
35602;SDS011;21725;50.836;4.368;2022-11-20T14:06:30;8.95;;;3.33;;
35602;SDS011;21725;50.836;4.368;2022-11-20T14:08:59;6.32;;;3.10;;
35602;SDS011;21725;50.836;4.368;2022-11-20T14:11:26;7.18;;;2.90;;
35602;SDS011;21725;50.836;4.368;2022-11-20T14:14:00;6.10;;;3.20;;
35602;SDS011;21725;50.836;4.368;2022-11-20T14:16:39;5.35;;;3.50;;
35602;SDS011;21725;50.836;4.368;2022-11-20T14:19:22;6.70;;;3.30;;
35602;SDS011;21725;50.836;4.368;2022-11-20T14:25:00;5.25;;;2.65;;
35602;SDS011;21725;50.836;4.368;2022-11-20T14:27:28;4.30;;;2.42;;
35602;SDS011;21725;50.836;4.368;2022-11-20T14:29:54;4.18;;;2.92;;
35602;SDS011;21725;50.836;4.368;2022-11-20T14:32:21;6.38;;;3.67;;
35602;SDS011;21725;50.836;4.368;2022-11-20T14:34:53;4.68;;;2.92;;
35602;SDS011;21725;50.836;4.368;2022-11-20T14:37:23;5.65;;;3.05;;
35602;SDS011;21725;50.836;4.368;2022-11-20T14:39:54;7.88;;;3.80;;
35602;SDS011;21725;50.836;4.368;2022-11-20T14:42:24;7.75;;;3.67;;
35602;SDS011;21725;50.836;4.368;2022-11-20T14:44:52;5.47;;;3.28;;
35602;SDS011;21725;50.836;4.368;2022-11-20T14:47:22;9.50;;;4.20;;
35602;SDS011;21725;50.836;4.368;2022-11-20T14:49:51;6.53;;;3.40;;
35602;SDS011;21725;50.836;4.368;2022-11-20T14:52:20;10.65;;;3.95;;
35602;SDS011;21725;50.836;4.368;2022-11-20T14:54:48;9.50;;;4.68;;
35602;SDS011;21725;50.836;4.368;2022-11-20T15:00:05;5.57;;;2.90;;
35602;SDS011;21725;50.836;4.368;2022-11-20T15:02:47;5.28;;;3.10;;
35602;SDS011;21725;50.836;4.368;2022-11-20T15:05:14;5.65;;;2.65;;
35602;SDS011;21725;50.836;4.368;2022-11-20T15:07:43;8.07;;;3.22;;
35602;SDS011;21725;50.836;4.368;2022-11-20T15:10:21;5.35;;;3.17;;
35602;SDS011;21725;50.836;4.368;2022-11-20T15:12:51;6.30;;;3.65;;
35602;SDS011;21725;50.836;4.368;2022-11-20T15:16:08;7.47;;;3.53;;
35602;SDS011;21725;50.836;4.368;2022-11-20T15:18:12;7.50;;;4.18;;
35602;SDS011;21725;50.836;4.368;2022-11-20T15:20:39;9.05;;;4.75;;
35602;SDS011;21725;50.836;4.368;2022-11-20T15:23:11;9.02;;;4.40;;
35602;SDS011;21725;50.836;4.368;2022-11-20T15:25:38;9.35;;;3.65;;
35602;SDS011;21725;50.836;4.368;2022-11-20T15:28:09;6.50;;;3.50;;
35602;SDS011;21725;50.836;4.368;2022-11-20T15:30:43;7.95;;;3.85;;
35602;SDS011;21725;50.836;4.368;2022-11-20T15:33:09;8.48;;;4.45;;
35602;SDS011;21725;50.836;4.368;2022-11-20T15:35:35;11.02;;;5.95;;
35602;SDS011;21725;50.836;4.368;2022-11-20T15:38:01;7.32;;;4.22;;
35602;SDS011;21725;50.836;4.368;2022-11-20T15:40:27;6.85;;;3.90;;
35602;SDS011;21725;50.836;4.368;2022-11-20T15:42:52;11.52;;;4.10;;
35602;SDS011;21725;50.836;4.368;2022-11-20T15:45:43;11.25;;;5.95;;
35602;SDS011;21725;50.836;4.368;2022-11-20T15:48:13;7.72;;;4.70;;
35602;SDS011;21725;50.836;4.368;2022-11-20T15:50:46;11.77;;;5.65;;
35602;SDS011;21725;50.836;4.368;2022-11-20T15:53:21;12.60;;;5.45;;
35602;SDS011;21725;50.836;4.368;2022-11-20T15:55:47;14.57;;;5.88;;
35602;SDS011;21725;50.836;4.368;2022-11-20T15:58:13;9.70;;;5.20;;
35602;SDS011;21725;50.836;4.368;2022-11-20T16:00:39;10.43;;;5.63;;
35602;SDS011;21725;50.836;4.368;2022-11-20T16:03:04;13.55;;;4.80;;
35602;SDS011;21725;50.836;4.368;2022-11-20T16:05:30;12.52;;;4.60;;
35602;SDS011;21725;50.836;4.368;2022-11-20T16:07:56;11.77;;;5.00;;
35602;SDS011;21725;50.836;4.368;2022-11-20T16:10:22;13.02;;;5.50;;
35602;SDS011;21725;50.836;4.368;2022-11-20T16:12:48;13.90;;;5.93;;
35602;SDS011;21725;50.836;4.368;2022-11-20T16:15:33;13.38;;;5.70;;
35602;SDS011;21725;50.836;4.368;2022-11-20T16:18:12;15.18;;;7.30;;
35602;SDS011;21725;50.836;4.368;2022-11-20T16:20:45;13.10;;;6.47;;
35602;SDS011;21725;50.836;4.368;2022-11-20T16:23:16;15.52;;;6.90;;
35602;SDS011;21725;50.836;4.368;2022-11-20T16:25:43;32.42;;;8.10;;
35602;SDS011;21725;50.836;4.368;2022-11-20T16:28:09;17.90;;;8.10;;
35602;SDS011;21725;50.836;4.368;2022-11-20T16:30:36;12.85;;;5.90;;
35602;SDS011;21725;50.836;4.368;2022-11-20T16:33:02;15.50;;;4.90;;
35602;SDS011;21725;50.836;4.368;2022-11-20T16:35:29;16.75;;;5.82;;
35602;SDS011;21725;50.836;4.368;2022-11-20T16:37:56;13.23;;;4.65;;
35602;SDS011;21725;50.836;4.368;2022-11-20T16:40:23;18.15;;;5.97;;
35602;SDS011;21725;50.836;4.368;2022-11-20T16:42:49;21.27;;;6.43;;
35602;SDS011;21725;50.836;4.368;2022-11-20T16:45:16;14.50;;;4.72;;
35602;SDS011;21725;50.836;4.368;2022-11-20T16:47:45;16.13;;;5.40;;
35602;SDS011;21725;50.836;4.368;2022-11-20T16:50:11;12.50;;;4.65;;
35602;SDS011;21725;50.836;4.368;2022-11-20T16:52:36;15.38;;;5.20;;
35602;SDS011;21725;50.836;4.368;2022-11-20T16:55:02;23.40;;;6.78;;
35602;SDS011;21725;50.836;4.368;2022-11-20T16:57:28;18.52;;;5.22;;
35602;SDS011;21725;50.836;4.368;2022-11-20T16:59:55;18.48;;;4.57;;
35602;SDS011;21725;50.836;4.368;2022-11-20T17:24:23;24.35;;;6.25;;
35602;SDS011;21725;50.836;4.368;2022-11-20T17:26:49;16.33;;;6.20;;
35602;SDS011;21725;50.836;4.368;2022-11-20T17:29:18;25.13;;;6.55;;